sensor_id;sensor_type;location;lat;lon;timestamp;temperature;humidity
74540;SHT31;66042;51.090;-115.340;2024-03-22T00:00:01;0.93;57.46
74540;SHT31;66042;51.090;-115.340;2024-03-22T00:02:29;0.89;57.59
74540;SHT31;66042;51.090;-115.340;2024-03-22T00:04:56;0.84;57.60
74540;SHT31;66042;51.090;-115.340;2024-03-22T00:07:24;0.81;57.46
74540;SHT31;66042;51.090;-115.340;2024-03-22T00:09:51;0.82;57.52
74540;SHT31;66042;51.090;-115.340;2024-03-22T00:12:18;0.82;57.66
74540;SHT31;66042;51.090;-115.340;2024-03-22T00:14:45;0.81;57.64
74540;SHT31;66042;51.090;-115.340;2024-03-22T00:17:12;0.80;57.84
74540;SHT31;66042;51.090;-115.340;2024-03-22T00:19:39;0.80;57.86
74540;SHT31;66042;51.090;-115.340;2024-03-22T00:22:06;0.80;57.79
74540;SHT31;66042;51.090;-115.340;2024-03-22T00:24:34;0.78;57.81
74540;SHT31;66042;51.090;-115.340;2024-03-22T00:27:00;0.76;57.88
74540;SHT31;66042;51.090;-115.340;2024-03-22T00:29:28;0.75;58.08
74540;SHT31;66042;51.090;-115.340;2024-03-22T00:31:54;0.72;58.10
74540;SHT31;66042;51.090;-115.340;2024-03-22T00:34:25;0.70;58.03
74540;SHT31;66042;51.090;-115.340;2024-03-22T00:36:53;0.69;58.12
74540;SHT31;66042;51.090;-115.340;2024-03-22T00:39:20;0.69;58.26
74540;SHT31;66042;51.090;-115.340;2024-03-22T00:41:47;0.68;58.31
74540;SHT31;66042;51.090;-115.340;2024-03-22T00:44:14;0.68;58.37
74540;SHT31;66042;51.090;-115.340;2024-03-22T00:46:40;0.65;58.48
74540;SHT31;66042;51.090;-115.340;2024-03-22T00:49:08;0.61;58.60
74540;SHT31;66042;51.090;-115.340;2024-03-22T00:51:35;0.54;58.66
74540;SHT31;66042;51.090;-115.340;2024-03-22T00:54:02;0.49;58.71
74540;SHT31;66042;51.090;-115.340;2024-03-22T00:56:28;0.47;58.75
74540;SHT31;66042;51.090;-115.340;2024-03-22T00:58:55;0.42;58.76
74540;SHT31;66042;51.090;-115.340;2024-03-22T01:01:22;0.39;58.93
74540;SHT31;66042;51.090;-115.340;2024-03-22T01:03:49;0.34;59.00
74540;SHT31;66042;51.090;-115.340;2024-03-22T01:06:16;0.31;59.01
74540;SHT31;66042;51.090;-115.340;2024-03-22T01:08:49;0.25;59.15
74540;SHT31;66042;51.090;-115.340;2024-03-22T01:11:17;0.22;59.42
74540;SHT31;66042;51.090;-115.340;2024-03-22T01:13:44;0.17;59.74
74540;SHT31;66042;51.090;-115.340;2024-03-22T01:16:11;0.15;59.97
74540;SHT31;66042;51.090;-115.340;2024-03-22T01:18:38;0.11;60.09
74540;SHT31;66042;51.090;-115.340;2024-03-22T01:21:05;0.11;60.10
74540;SHT31;66042;51.090;-115.340;2024-03-22T01:23:32;0.07;60.11
74540;SHT31;66042;51.090;-115.340;2024-03-22T01:26:00;0.05;60.16
74540;SHT31;66042;51.090;-115.340;2024-03-22T01:28:26;0.01;60.17
74540;SHT31;66042;51.090;-115.340;2024-03-22T01:30:53;-0.01;60.28
74540;SHT31;66042;51.090;-115.340;2024-03-22T01:33:21;-0.00;60.26
74540;SHT31;66042;51.090;-115.340;2024-03-22T01:35:48;-0.00;60.25
74540;SHT31;66042;51.090;-115.340;2024-03-22T01:38:15;-0.01;60.25
74540;SHT31;66042;51.090;-115.340;2024-03-22T01:40:42;-0.02;60.32
74540;SHT31;66042;51.090;-115.340;2024-03-22T01:43:09;-0.04;60.31
74540;SHT31;66042;51.090;-115.340;2024-03-22T01:45:36;-0.07;60.20
74540;SHT31;66042;51.090;-115.340;2024-03-22T01:48:03;-0.08;60.20
74540;SHT31;66042;51.090;-115.340;2024-03-22T01:50:32;-0.11;60.11
74540;SHT31;66042;51.090;-115.340;2024-03-22T01:53:00;-0.20;60.19
74540;SHT31;66042;51.090;-115.340;2024-03-22T01:55:27;-0.25;60.25
74540;SHT31;66042;51.090;-115.340;2024-03-22T01:57:55;-0.28;60.24
74540;SHT31;66042;51.090;-115.340;2024-03-22T02:00:22;-0.31;60.37
74540;SHT31;66042;51.090;-115.340;2024-03-22T02:02:50;-0.37;60.40
74540;SHT31;66042;51.090;-115.340;2024-03-22T02:05:17;-0.41;60.31
74540;SHT31;66042;51.090;-115.340;2024-03-22T02:07:45;-0.45;60.33
74540;SHT31;66042;51.090;-115.340;2024-03-22T02:10:13;-0.48;60.37
74540;SHT31;66042;51.090;-115.340;2024-03-22T02:12:41;-0.54;60.42
74540;SHT31;66042;51.090;-115.340;2024-03-22T02:15:08;-0.60;60.54
74540;SHT31;66042;51.090;-115.340;2024-03-22T02:17:36;-0.67;60.64
74540;SHT31;66042;51.090;-115.340;2024-03-22T02:20:03;-0.74;60.69
74540;SHT31;66042;51.090;-115.340;2024-03-22T02:22:30;-0.76;60.89
74540;SHT31;66042;51.090;-115.340;2024-03-22T02:24:57;-0.81;60.89
74540;SHT31;66042;51.090;-115.340;2024-03-22T02:27:25;-0.87;60.88
74540;SHT31;66042;51.090;-115.340;2024-03-22T02:29:52;-0.88;60.90
74540;SHT31;66042;51.090;-115.340;2024-03-22T02:32:22;-0.93;60.93
74540;SHT31;66042;51.090;-115.340;2024-03-22T02:34:49;-0.93;61.09
74540;SHT31;66042;51.090;-115.340;2024-03-22T02:37:16;-0.94;61.15
74540;SHT31;66042;51.090;-115.340;2024-03-22T02:39:43;-0.97;61.04
74540;SHT31;66042;51.090;-115.340;2024-03-22T02:42:10;-1.00;61.13
74540;SHT31;66042;51.090;-115.340;2024-03-22T02:44:38;-1.04;61.12
74540;SHT31;66042;51.090;-115.340;2024-03-22T02:47:09;-1.05;61.21
74540;SHT31;66042;51.090;-115.340;2024-03-22T02:49:38;-1.08;61.17
74540;SHT31;66042;51.090;-115.340;2024-03-22T02:52:05;-1.10;61.20
74540;SHT31;66042;51.090;-115.340;2024-03-22T02:54:32;-1.13;61.25
74540;SHT31;66042;51.090;-115.340;2024-03-22T02:56:59;-1.14;61.21
74540;SHT31;66042;51.090;-115.340;2024-03-22T02:59:27;-1.13;61.15
74540;SHT31;66042;51.090;-115.340;2024-03-22T03:01:54;-1.16;61.05
74540;SHT31;66042;51.090;-115.340;2024-03-22T03:04:22;-1.19;61.11
74540;SHT31;66042;51.090;-115.340;2024-03-22T03:06:49;-1.23;61.12
74540;SHT31;66042;51.090;-115.340;2024-03-22T03:09:16;-1.24;61.12
74540;SHT31;66042;51.090;-115.340;2024-03-22T03:11:43;-1.27;61.08
74540;SHT31;66042;51.090;-115.340;2024-03-22T03:14:10;-1.30;61.10
74540;SHT31;66042;51.090;-115.340;2024-03-22T03:16:39;-1.33;61.21
74540;SHT31;66042;51.090;-115.340;2024-03-22T03:19:06;-1.37;61.70
74540;SHT31;66042;51.090;-115.340;2024-03-22T03:21:33;-1.39;61.99
74540;SHT31;66042;51.090;-115.340;2024-03-22T03:24:00;-1.41;62.06
74540;SHT31;66042;51.090;-115.340;2024-03-22T03:26:27;-1.43;62.24
74540;SHT31;66042;51.090;-115.340;2024-03-22T03:28:54;-1.45;62.14
74540;SHT31;66042;51.090;-115.340;2024-03-22T03:31:21;-1.45;62.10
74540;SHT31;66042;51.090;-115.340;2024-03-22T03:33:48;-1.44;62.00
74540;SHT31;66042;51.090;-115.340;2024-03-22T03:36:15;-1.45;62.19
74540;SHT31;66042;51.090;-115.340;2024-03-22T03:38:43;-1.44;62.20
74540;SHT31;66042;51.090;-115.340;2024-03-22T03:41:10;-1.45;62.11
74540;SHT31;66042;51.090;-115.340;2024-03-22T03:43:37;-1.44;61.91
74540;SHT31;66042;51.090;-115.340;2024-03-22T03:46:04;-1.42;61.83
74540;SHT31;66042;51.090;-115.340;2024-03-22T03:48:32;-1.42;61.69
74540;SHT31;66042;51.090;-115.340;2024-03-22T03:50:59;-1.43;61.73
74540;SHT31;66042;51.090;-115.340;2024-03-22T03:53:29;-1.42;61.76
74540;SHT31;66042;51.090;-115.340;2024-03-22T03:55:56;-1.41;61.80
74540;SHT31;66042;51.090;-115.340;2024-03-22T03:58:23;-1.40;61.70
74540;SHT31;66042;51.090;-115.340;2024-03-22T04:00:54;-1.40;61.71
74540;SHT31;66042;51.090;-115.340;2024-03-22T04:03:21;-1.40;61.70
74540;SHT31;66042;51.090;-115.340;2024-03-22T04:06:00;-1.41;61.68
74540;SHT31;66042;51.090;-115.340;2024-03-22T04:08:39;-1.47;61.69
74540;SHT31;66042;51.090;-115.340;2024-03-22T04:11:06;-1.49;61.73
74540;SHT31;66042;51.090;-115.340;2024-03-22T04:13:34;-1.52;61.66
74540;SHT31;66042;51.090;-115.340;2024-03-22T04:16:01;-1.54;61.78
74540;SHT31;66042;51.090;-115.340;2024-03-22T04:18:29;-1.58;61.64
74540;SHT31;66042;51.090;-115.340;2024-03-22T04:20:56;-1.60;61.68
74540;SHT31;66042;51.090;-115.340;2024-03-22T04:23:25;-1.62;61.75
74540;SHT31;66042;51.090;-115.340;2024-03-22T04:25:56;-1.63;61.84
74540;SHT31;66042;51.090;-115.340;2024-03-22T04:28:28;-1.65;61.89
74540;SHT31;66042;51.090;-115.340;2024-03-22T04:30:56;-1.70;61.97
74540;SHT31;66042;51.090;-115.340;2024-03-22T04:33:25;-1.72;62.03
74540;SHT31;66042;51.090;-115.340;2024-03-22T04:35:54;-1.75;62.14
74540;SHT31;66042;51.090;-115.340;2024-03-22T04:38:22;-1.77;62.01
74540;SHT31;66042;51.090;-115.340;2024-03-22T04:40:50;-1.77;62.06
74540;SHT31;66042;51.090;-115.340;2024-03-22T04:43:19;-1.79;62.20
74540;SHT31;66042;51.090;-115.340;2024-03-22T04:45:47;-1.80;62.21
74540;SHT31;66042;51.090;-115.340;2024-03-22T04:48:16;-1.82;62.18
74540;SHT31;66042;51.090;-115.340;2024-03-22T04:50:46;-1.84;62.12
74540;SHT31;66042;51.090;-115.340;2024-03-22T04:53:16;-1.84;62.31
74540;SHT31;66042;51.090;-115.340;2024-03-22T04:55:46;-1.85;62.40
74540;SHT31;66042;51.090;-115.340;2024-03-22T04:58:14;-1.87;62.48
74540;SHT31;66042;51.090;-115.340;2024-03-22T05:00:45;-1.88;62.59
74540;SHT31;66042;51.090;-115.340;2024-03-22T05:03:14;-1.89;62.54
74540;SHT31;66042;51.090;-115.340;2024-03-22T05:05:42;-1.94;62.58
74540;SHT31;66042;51.090;-115.340;2024-03-22T05:08:09;-1.96;62.76
74540;SHT31;66042;51.090;-115.340;2024-03-22T05:10:37;-1.98;62.78
74540;SHT31;66042;51.090;-115.340;2024-03-22T05:13:04;-1.99;62.71
74540;SHT31;66042;51.090;-115.340;2024-03-22T05:15:31;-2.00;62.78
74540;SHT31;66042;51.090;-115.340;2024-03-22T05:17:58;-2.02;62.78
74540;SHT31;66042;51.090;-115.340;2024-03-22T05:20:26;-1.99;62.71
74540;SHT31;66042;51.090;-115.340;2024-03-22T05:22:53;-1.96;62.73
74540;SHT31;66042;51.090;-115.340;2024-03-22T05:25:20;-1.94;62.68
74540;SHT31;66042;51.090;-115.340;2024-03-22T05:27:47;-1.93;62.63
74540;SHT31;66042;51.090;-115.340;2024-03-22T05:30:14;-1.90;62.45
74540;SHT31;66042;51.090;-115.340;2024-03-22T05:32:41;-1.86;62.31
74540;SHT31;66042;51.090;-115.340;2024-03-22T05:35:08;-1.83;62.17
74540;SHT31;66042;51.090;-115.340;2024-03-22T05:37:35;-1.82;62.20
74540;SHT31;66042;51.090;-115.340;2024-03-22T05:40:02;-1.81;62.05
74540;SHT31;66042;51.090;-115.340;2024-03-22T05:42:30;-1.82;62.10
74540;SHT31;66042;51.090;-115.340;2024-03-22T05:44:57;-1.82;62.12
74540;SHT31;66042;51.090;-115.340;2024-03-22T05:47:24;-1.82;62.09
74540;SHT31;66042;51.090;-115.340;2024-03-22T05:49:51;-1.83;62.19
74540;SHT31;66042;51.090;-115.340;2024-03-22T05:52:19;-1.84;62.21
74540;SHT31;66042;51.090;-115.340;2024-03-22T05:54:45;-1.83;62.26
74540;SHT31;66042;51.090;-115.340;2024-03-22T05:57:13;-1.83;62.22
74540;SHT31;66042;51.090;-115.340;2024-03-22T05:59:41;-1.83;62.16
74540;SHT31;66042;51.090;-115.340;2024-03-22T06:02:08;-1.86;62.11
74540;SHT31;66042;51.090;-115.340;2024-03-22T06:04:35;-1.89;62.17
74540;SHT31;66042;51.090;-115.340;2024-03-22T06:07:02;-1.93;62.20
74540;SHT31;66042;51.090;-115.340;2024-03-22T06:09:32;-1.96;62.19
74540;SHT31;66042;51.090;-115.340;2024-03-22T06:12:24;-1.97;62.18
74540;SHT31;66042;51.090;-115.340;2024-03-22T06:14:51;-1.99;62.24
74540;SHT31;66042;51.090;-115.340;2024-03-22T06:17:18;-1.99;62.32
74540;SHT31;66042;51.090;-115.340;2024-03-22T06:19:45;-2.01;62.28
74540;SHT31;66042;51.090;-115.340;2024-03-22T06:22:12;-2.02;62.43
74540;SHT31;66042;51.090;-115.340;2024-03-22T06:24:39;-2.05;62.59
74540;SHT31;66042;51.090;-115.340;2024-03-22T06:27:06;-2.08;62.65
74540;SHT31;66042;51.090;-115.340;2024-03-22T06:29:33;-2.12;62.82
74540;SHT31;66042;51.090;-115.340;2024-03-22T06:32:00;-2.13;62.93
74540;SHT31;66042;51.090;-115.340;2024-03-22T06:34:28;-2.15;63.02
74540;SHT31;66042;51.090;-115.340;2024-03-22T06:36:55;-2.16;63.08
74540;SHT31;66042;51.090;-115.340;2024-03-22T06:39:22;-2.18;63.07
74540;SHT31;66042;51.090;-115.340;2024-03-22T06:41:50;-2.17;63.03
74540;SHT31;66042;51.090;-115.340;2024-03-22T06:44:16;-2.18;63.00
74540;SHT31;66042;51.090;-115.340;2024-03-22T06:46:43;-2.18;63.00
74540;SHT31;66042;51.090;-115.340;2024-03-22T06:49:10;-2.18;62.99
74540;SHT31;66042;51.090;-115.340;2024-03-22T06:51:37;-2.20;63.00
74540;SHT31;66042;51.090;-115.340;2024-03-22T06:54:04;-2.23;63.02
74540;SHT31;66042;51.090;-115.340;2024-03-22T06:56:32;-2.25;63.08
74540;SHT31;66042;51.090;-115.340;2024-03-22T06:58:59;-2.26;63.04
74540;SHT31;66042;51.090;-115.340;2024-03-22T07:01:26;-2.27;63.06
74540;SHT31;66042;51.090;-115.340;2024-03-22T07:03:53;-2.31;63.09
74540;SHT31;66042;51.090;-115.340;2024-03-22T07:06:20;-2.33;63.22
74540;SHT31;66042;51.090;-115.340;2024-03-22T07:08:47;-2.30;63.20
74540;SHT31;66042;51.090;-115.340;2024-03-22T07:11:14;-2.30;63.14
74540;SHT31;66042;51.090;-115.340;2024-03-22T07:13:41;-2.28;63.10
74540;SHT31;66042;51.090;-115.340;2024-03-22T07:16:08;-2.28;63.03
74540;SHT31;66042;51.090;-115.340;2024-03-22T07:18:35;-2.26;63.10
74540;SHT31;66042;51.090;-115.340;2024-03-22T07:21:02;-2.22;63.11
74540;SHT31;66042;51.090;-115.340;2024-03-22T07:23:29;-2.21;63.10
74540;SHT31;66042;51.090;-115.340;2024-03-22T07:25:56;-2.19;63.10
74540;SHT31;66042;51.090;-115.340;2024-03-22T07:28:25;-2.17;63.13
74540;SHT31;66042;51.090;-115.340;2024-03-22T07:30:52;-2.18;63.07
74540;SHT31;66042;51.090;-115.340;2024-03-22T07:33:20;-2.16;62.90
74540;SHT31;66042;51.090;-115.340;2024-03-22T07:35:47;-2.16;62.89
74540;SHT31;66042;51.090;-115.340;2024-03-22T07:38:14;-2.16;62.91
74540;SHT31;66042;51.090;-115.340;2024-03-22T07:40:41;-2.18;62.97
74540;SHT31;66042;51.090;-115.340;2024-03-22T07:43:08;-2.20;63.03
74540;SHT31;66042;51.090;-115.340;2024-03-22T07:45:36;-2.26;63.13
74540;SHT31;66042;51.090;-115.340;2024-03-22T07:48:04;-2.27;63.25
74540;SHT31;66042;51.090;-115.340;2024-03-22T07:50:31;-2.27;63.29
74540;SHT31;66042;51.090;-115.340;2024-03-22T07:52:58;-2.25;63.21
74540;SHT31;66042;51.090;-115.340;2024-03-22T07:55:25;-2.25;63.20
74540;SHT31;66042;51.090;-115.340;2024-03-22T07:57:52;-2.24;63.21
74540;SHT31;66042;51.090;-115.340;2024-03-22T08:00:19;-2.28;63.28
74540;SHT31;66042;51.090;-115.340;2024-03-22T08:02:46;-2.30;63.44
74540;SHT31;66042;51.090;-115.340;2024-03-22T08:05:13;-2.30;63.43
74540;SHT31;66042;51.090;-115.340;2024-03-22T08:07:41;-2.32;63.45
74540;SHT31;66042;51.090;-115.340;2024-03-22T08:10:09;-2.35;63.50
74540;SHT31;66042;51.090;-115.340;2024-03-22T08:12:36;-2.39;63.67
74540;SHT31;66042;51.090;-115.340;2024-03-22T08:15:04;-2.42;63.81
74540;SHT31;66042;51.090;-115.340;2024-03-22T08:17:31;-2.45;63.99
74540;SHT31;66042;51.090;-115.340;2024-03-22T08:19:58;-2.48;64.11
74540;SHT31;66042;51.090;-115.340;2024-03-22T08:22:25;-2.51;64.25
74540;SHT31;66042;51.090;-115.340;2024-03-22T08:24:52;-2.49;64.33
74540;SHT31;66042;51.090;-115.340;2024-03-22T08:27:21;-2.51;64.40
74540;SHT31;66042;51.090;-115.340;2024-03-22T08:29:48;-2.60;64.48
74540;SHT31;66042;51.090;-115.340;2024-03-22T08:32:15;-2.68;64.67
74540;SHT31;66042;51.090;-115.340;2024-03-22T08:34:42;-2.73;64.95
74540;SHT31;66042;51.090;-115.340;2024-03-22T08:37:09;-2.73;65.16
74540;SHT31;66042;51.090;-115.340;2024-03-22T08:39:37;-2.69;65.20
74540;SHT31;66042;51.090;-115.340;2024-03-22T08:42:04;-2.63;65.16
74540;SHT31;66042;51.090;-115.340;2024-03-22T08:44:31;-2.61;65.10
74540;SHT31;66042;51.090;-115.340;2024-03-22T08:46:58;-2.57;65.10
74540;SHT31;66042;51.090;-115.340;2024-03-22T08:49:25;-2.55;65.10
74540;SHT31;66042;51.090;-115.340;2024-03-22T08:51:52;-2.54;65.10
74540;SHT31;66042;51.090;-115.340;2024-03-22T08:54:19;-2.52;65.10
74540;SHT31;66042;51.090;-115.340;2024-03-22T08:56:45;-2.57;65.12
74540;SHT31;66042;51.090;-115.340;2024-03-22T08:59:13;-2.57;65.15
74540;SHT31;66042;51.090;-115.340;2024-03-22T09:01:40;-2.56;65.10
74540;SHT31;66042;51.090;-115.340;2024-03-22T09:04:07;-2.53;65.04
74540;SHT31;66042;51.090;-115.340;2024-03-22T09:06:33;-2.50;64.92
74540;SHT31;66042;51.090;-115.340;2024-03-22T09:09:01;-2.49;64.79
74540;SHT31;66042;51.090;-115.340;2024-03-22T09:11:30;-2.49;64.80
74540;SHT31;66042;51.090;-115.340;2024-03-22T09:13:57;-2.48;64.70
74540;SHT31;66042;51.090;-115.340;2024-03-22T09:16:24;-2.51;64.70
74540;SHT31;66042;51.090;-115.340;2024-03-22T09:18:51;-2.46;64.62
74540;SHT31;66042;51.090;-115.340;2024-03-22T09:21:19;-2.44;64.50
74540;SHT31;66042;51.090;-115.340;2024-03-22T09:23:47;-2.43;64.36
74540;SHT31;66042;51.090;-115.340;2024-03-22T09:26:14;-2.44;64.39
74540;SHT31;66042;51.090;-115.340;2024-03-22T09:28:41;-2.44;64.42
74540;SHT31;66042;51.090;-115.340;2024-03-22T09:31:08;-2.42;64.40
74540;SHT31;66042;51.090;-115.340;2024-03-22T09:33:35;-2.42;64.40
74540;SHT31;66042;51.090;-115.340;2024-03-22T09:36:02;-2.42;64.40
74540;SHT31;66042;51.090;-115.340;2024-03-22T09:38:29;-2.42;64.47
74540;SHT31;66042;51.090;-115.340;2024-03-22T09:40:57;-2.43;64.50
74540;SHT31;66042;51.090;-115.340;2024-03-22T09:43:24;-2.45;64.53
74540;SHT31;66042;51.090;-115.340;2024-03-22T09:45:54;-2.47;64.58
74540;SHT31;66042;51.090;-115.340;2024-03-22T09:48:22;-2.46;64.55
74540;SHT31;66042;51.090;-115.340;2024-03-22T09:50:50;-2.44;64.50
74540;SHT31;66042;51.090;-115.340;2024-03-22T09:53:18;-2.44;64.44
74540;SHT31;66042;51.090;-115.340;2024-03-22T09:55:51;-2.43;64.43
74540;SHT31;66042;51.090;-115.340;2024-03-22T09:58:23;-2.44;64.40
74540;SHT31;66042;51.090;-115.340;2024-03-22T10:00:51;-2.43;64.39
74540;SHT31;66042;51.090;-115.340;2024-03-22T10:03:21;-2.41;64.29
74540;SHT31;66042;51.090;-115.340;2024-03-22T10:05:48;-2.38;64.18
74540;SHT31;66042;51.090;-115.340;2024-03-22T10:08:15;-2.39;64.14
74540;SHT31;66042;51.090;-115.340;2024-03-22T10:10:42;-2.36;64.10
74540;SHT31;66042;51.090;-115.340;2024-03-22T10:13:09;-2.33;63.99
74540;SHT31;66042;51.090;-115.340;2024-03-22T10:15:36;-2.33;63.94
74540;SHT31;66042;51.090;-115.340;2024-03-22T10:18:04;-2.33;64.00
74540;SHT31;66042;51.090;-115.340;2024-03-22T10:20:30;-2.32;63.91
74540;SHT31;66042;51.090;-115.340;2024-03-22T10:22:59;-2.31;63.83
74540;SHT31;66042;51.090;-115.340;2024-03-22T10:25:26;-2.30;63.76
74540;SHT31;66042;51.090;-115.340;2024-03-22T10:27:54;-2.31;63.79
74540;SHT31;66042;51.090;-115.340;2024-03-22T10:30:23;-2.34;63.74
74540;SHT31;66042;51.090;-115.340;2024-03-22T10:32:50;-2.37;63.80
74540;SHT31;66042;51.090;-115.340;2024-03-22T10:35:17;-2.40;63.85
74540;SHT31;66042;51.090;-115.340;2024-03-22T10:37:44;-2.42;63.90
74540;SHT31;66042;51.090;-115.340;2024-03-22T10:40:12;-2.42;63.90
74540;SHT31;66042;51.090;-115.340;2024-03-22T10:42:41;-2.43;63.90
74540;SHT31;66042;51.090;-115.340;2024-03-22T10:45:10;-2.46;63.99
74540;SHT31;66042;51.090;-115.340;2024-03-22T10:47:39;-2.50;64.10
74540;SHT31;66042;51.090;-115.340;2024-03-22T10:50:07;-2.51;64.15
74540;SHT31;66042;51.090;-115.340;2024-03-22T10:55:37;-2.54;64.24
74540;SHT31;66042;51.090;-115.340;2024-03-22T10:58:20;-2.55;64.30
74540;SHT31;66042;51.090;-115.340;2024-03-22T11:00:52;-2.56;64.40
74540;SHT31;66042;51.090;-115.340;2024-03-22T11:03:20;-2.58;64.40
74540;SHT31;66042;51.090;-115.340;2024-03-22T11:05:50;-2.57;64.40
74540;SHT31;66042;51.090;-115.340;2024-03-22T11:10:54;-2.62;64.55
74540;SHT31;66042;51.090;-115.340;2024-03-22T11:13:23;-2.63;64.52
74540;SHT31;66042;51.090;-115.340;2024-03-22T11:15:50;-2.63;64.48
74540;SHT31;66042;51.090;-115.340;2024-03-22T11:18:18;-2.64;64.46
74540;SHT31;66042;51.090;-115.340;2024-03-22T11:20:45;-2.62;64.45
74540;SHT31;66042;51.090;-115.340;2024-03-22T11:23:12;-2.58;64.38
74540;SHT31;66042;51.090;-115.340;2024-03-22T11:25:39;-2.57;64.24
74540;SHT31;66042;51.090;-115.340;2024-03-22T11:28:06;-2.56;64.20
74540;SHT31;66042;51.090;-115.340;2024-03-22T11:30:33;-2.52;64.19
74540;SHT31;66042;51.090;-115.340;2024-03-22T11:33:01;-2.49;64.01
74540;SHT31;66042;51.090;-115.340;2024-03-22T11:35:33;-2.44;63.91
74540;SHT31;66042;51.090;-115.340;2024-03-22T11:38:00;-2.42;63.65
74540;SHT31;66042;51.090;-115.340;2024-03-22T11:40:30;-2.42;63.60
74540;SHT31;66042;51.090;-115.340;2024-03-22T11:42:59;-2.42;63.58
74540;SHT31;66042;51.090;-115.340;2024-03-22T11:45:28;-2.41;63.45
74540;SHT31;66042;51.090;-115.340;2024-03-22T11:47:57;-2.45;63.39
74540;SHT31;66042;51.090;-115.340;2024-03-22T11:50:28;-2.48;63.48
74540;SHT31;66042;51.090;-115.340;2024-03-22T11:52:55;-2.49;63.37
74540;SHT31;66042;51.090;-115.340;2024-03-22T11:55:26;-2.50;63.29
74540;SHT31;66042;51.090;-115.340;2024-03-22T11:57:53;-2.53;63.19
74540;SHT31;66042;51.090;-115.340;2024-03-22T12:00:23;-2.57;63.17
74540;SHT31;66042;51.090;-115.340;2024-03-22T12:02:52;-2.62;63.28
74540;SHT31;66042;51.090;-115.340;2024-03-22T12:05:20;-2.63;63.30
74540;SHT31;66042;51.090;-115.340;2024-03-22T12:07:47;-2.64;63.30
74540;SHT31;66042;51.090;-115.340;2024-03-22T12:10:16;-2.64;63.30
74540;SHT31;66042;51.090;-115.340;2024-03-22T12:12:44;-2.66;63.30
74540;SHT31;66042;51.090;-115.340;2024-03-22T12:15:11;-2.68;63.24
74540;SHT31;66042;51.090;-115.340;2024-03-22T12:17:38;-2.72;63.24
74540;SHT31;66042;51.090;-115.340;2024-03-22T12:20:08;-2.75;63.26
74540;SHT31;66042;51.090;-115.340;2024-03-22T12:22:36;-2.78;63.30
74540;SHT31;66042;51.090;-115.340;2024-03-22T12:25:03;-2.81;63.37
74540;SHT31;66042;51.090;-115.340;2024-03-22T12:27:31;-2.83;63.43
74540;SHT31;66042;51.090;-115.340;2024-03-22T12:29:58;-2.85;63.46
74540;SHT31;66042;51.090;-115.340;2024-03-22T12:32:25;-2.88;63.55
74540;SHT31;66042;51.090;-115.340;2024-03-22T12:34:52;-2.90;63.58
74540;SHT31;66042;51.090;-115.340;2024-03-22T12:37:19;-2.91;63.54
74540;SHT31;66042;51.090;-115.340;2024-03-22T12:39:46;-2.95;63.50
74540;SHT31;66042;51.090;-115.340;2024-03-22T12:42:13;-2.96;63.50
74540;SHT31;66042;51.090;-115.340;2024-03-22T12:44:40;-2.99;63.48
74540;SHT31;66042;51.090;-115.340;2024-03-22T12:47:07;-3.02;63.38
74540;SHT31;66042;51.090;-115.340;2024-03-22T12:49:34;-3.06;63.28
74540;SHT31;66042;51.090;-115.340;2024-03-22T12:52:01;-3.10;63.33
74540;SHT31;66042;51.090;-115.340;2024-03-22T12:54:28;-3.12;63.29
74540;SHT31;66042;51.090;-115.340;2024-03-22T12:56:55;-3.14;63.21
74540;SHT31;66042;51.090;-115.340;2024-03-22T12:59:23;-3.20;63.26
74540;SHT31;66042;51.090;-115.340;2024-03-22T13:01:50;-3.24;63.36
74540;SHT31;66042;51.090;-115.340;2024-03-22T13:04:18;-3.28;63.39
74540;SHT31;66042;51.090;-115.340;2024-03-22T13:06:46;-3.32;63.49
74540;SHT31;66042;51.090;-115.340;2024-03-22T13:09:13;-3.34;63.69
74540;SHT31;66042;51.090;-115.340;2024-03-22T13:11:41;-3.37;63.67
74540;SHT31;66042;51.090;-115.340;2024-03-22T13:14:08;-3.37;63.76
74540;SHT31;66042;51.090;-115.340;2024-03-22T13:16:35;-3.37;63.79
74540;SHT31;66042;51.090;-115.340;2024-03-22T13:19:02;-3.38;63.85
74540;SHT31;66042;51.090;-115.340;2024-03-22T13:21:30;-3.38;63.90
74540;SHT31;66042;51.090;-115.340;2024-03-22T13:23:57;-3.38;63.82
74540;SHT31;66042;51.090;-115.340;2024-03-22T13:26:24;-3.40;63.83
74540;SHT31;66042;51.090;-115.340;2024-03-22T13:28:51;-3.39;63.77
74540;SHT31;66042;51.090;-115.340;2024-03-22T13:31:18;-3.43;63.65
74540;SHT31;66042;51.090;-115.340;2024-03-22T13:33:45;-3.44;63.77
74540;SHT31;66042;51.090;-115.340;2024-03-22T13:36:13;-3.52;63.64
74540;SHT31;66042;51.090;-115.340;2024-03-22T13:38:40;-3.62;63.87
74540;SHT31;66042;51.090;-115.340;2024-03-22T13:41:07;-3.60;64.34
74540;SHT31;66042;51.090;-115.340;2024-03-22T13:43:34;-3.53;64.38
74540;SHT31;66042;51.090;-115.340;2024-03-22T13:46:02;-3.46;64.35
74540;SHT31;66042;51.090;-115.340;2024-03-22T13:48:30;-3.40;64.35
74540;SHT31;66042;51.090;-115.340;2024-03-22T13:50:57;-3.34;64.30
74540;SHT31;66042;51.090;-115.340;2024-03-22T13:53:24;-3.29;64.27
74540;SHT31;66042;51.090;-115.340;2024-03-22T13:55:53;-3.24;64.17
74540;SHT31;66042;51.090;-115.340;2024-03-22T13:58:20;-3.21;64.03
74540;SHT31;66042;51.090;-115.340;2024-03-22T14:00:47;-3.18;64.00
74540;SHT31;66042;51.090;-115.340;2024-03-22T14:03:15;-3.18;64.02
74540;SHT31;66042;51.090;-115.340;2024-03-22T14:05:42;-3.17;64.00
74540;SHT31;66042;51.090;-115.340;2024-03-22T14:08:09;-3.17;64.00
74540;SHT31;66042;51.090;-115.340;2024-03-22T14:10:37;-3.15;63.93
74540;SHT31;66042;51.090;-115.340;2024-03-22T14:13:04;-3.13;63.89
74540;SHT31;66042;51.090;-115.340;2024-03-22T14:15:33;-3.16;63.84
74540;SHT31;66042;51.090;-115.340;2024-03-22T14:18:01;-3.15;63.98
74540;SHT31;66042;51.090;-115.340;2024-03-22T14:20:28;-3.15;63.96
74540;SHT31;66042;51.090;-115.340;2024-03-22T14:22:56;-3.17;64.06
74540;SHT31;66042;51.090;-115.340;2024-03-22T14:25:23;-3.14;64.06
74540;SHT31;66042;51.090;-115.340;2024-03-22T14:27:52;-3.12;64.00
74540;SHT31;66042;51.090;-115.340;2024-03-22T14:30:20;-3.13;63.91
74540;SHT31;66042;51.090;-115.340;2024-03-22T14:32:48;-3.14;63.99
74540;SHT31;66042;51.090;-115.340;2024-03-22T14:35:17;-3.16;63.95
74540;SHT31;66042;51.090;-115.340;2024-03-22T14:37:46;-3.14;63.93
74540;SHT31;66042;51.090;-115.340;2024-03-22T14:40:14;-3.13;63.83
74540;SHT31;66042;51.090;-115.340;2024-03-22T14:42:42;-3.12;63.80
74540;SHT31;66042;51.090;-115.340;2024-03-22T14:45:09;-3.10;63.80
74540;SHT31;66042;51.090;-115.340;2024-03-22T14:47:36;-3.09;63.79
74540;SHT31;66042;51.090;-115.340;2024-03-22T14:50:05;-3.10;63.75
74540;SHT31;66042;51.090;-115.340;2024-03-22T14:52:33;-3.10;63.85
74540;SHT31;66042;51.090;-115.340;2024-03-22T14:55:00;-3.11;63.90
74540;SHT31;66042;51.090;-115.340;2024-03-22T14:57:27;-3.08;63.95